Terminal Aerodrome Forecast
Issued by NWS

Home | Current Version | Previous Version | Text Only | Print | Product List | Glossary On
Versions: 1 2 3 4 5 6 7 8 9 10 11 12 13 14 15 16 17 18
000
FTUS44 KLZK 222300 RRA
TAFBPK
TAF
KBPK 222346Z 2300/2324 16006KT 6SM -DZ SCT006 OVC020
     FM230200 24009KT P6SM BKN025
     FM230600 27006KT P6SM SCT025 BKN050
     FM231000 24005KT P6SM BKN100
     FM231600 18005KT P6SM OVC080 PROB30 2318/2324 4SM -SHRA BR
      SCT025 OVC040=

USA.gov is the U.S. government's official web portal to all federal, state and local government web resources and services.